Spottwood, South Dakota
Current Conditions -  °F | °C
As of 5:55 PM on Wednesday 22 Oct 2014 (Local Time) from KHON Reporting Station
Overcast Overcast  
Wind Chill: 58°   Ceiling: 4100
Heat Index: 58°   Visibility: 10mi
Dew Point: 53°   Wind: 6mph
Humidity: 84%   Direction: 250°WSW
Pressure: 29.95"   Gusts: NA
Location:  44.7205°N, 98.5844°W
Report Text: KHON 222255Z AUTO 25005KT 10SM OVC041 14/12 A2995 RMK AO2 SLP144 T01440117
Loading
Personal Weather Stations






























Interactive Weather Map
Tropical Storm Tracking
New forecast layout! Learn more

10-Day Weather Forecast

Advertisements
Track Severe Weather on mobile